sensor_id;sensor_type;location;lat;lon;timestamp;P1;durP1;ratioP1;P2;durP2;ratioP2
36799;SDS011;22752;51.960;5.886;2023-03-03T00:00:38;48.93;;;27.77;;
36799;SDS011;22752;51.960;5.886;2023-03-03T00:03:05;49.10;;;26.53;;
36799;SDS011;22752;51.960;5.886;2023-03-03T00:05:32;44.20;;;25.77;;
36799;SDS011;22752;51.960;5.886;2023-03-03T00:07:59;49.13;;;26.60;;
36799;SDS011;22752;51.960;5.886;2023-03-03T00:10:25;45.97;;;26.30;;
36799;SDS011;22752;51.960;5.886;2023-03-03T00:12:50;48.50;;;27.27;;
36799;SDS011;22752;51.960;5.886;2023-03-03T00:15:17;53.60;;;28.30;;
36799;SDS011;22752;51.960;5.886;2023-03-03T00:17:45;47.77;;;26.27;;
36799;SDS011;22752;51.960;5.886;2023-03-03T00:20:28;49.53;;;27.60;;
36799;SDS011;22752;51.960;5.886;2023-03-03T00:23:00;48.97;;;27.40;;
36799;SDS011;22752;51.960;5.886;2023-03-03T00:25:44;49.33;;;27.83;;
36799;SDS011;22752;51.960;5.886;2023-03-03T00:30:53;50.87;;;27.47;;
36799;SDS011;22752;51.960;5.886;2023-03-03T00:35:58;46.63;;;25.17;;
36799;SDS011;22752;51.960;5.886;2023-03-03T00:38:46;46.63;;;26.20;;
36799;SDS011;22752;51.960;5.886;2023-03-03T00:41:23;45.73;;;26.00;;
36799;SDS011;22752;51.960;5.886;2023-03-03T00:43:50;52.07;;;28.00;;
36799;SDS011;22752;51.960;5.886;2023-03-03T00:46:20;51.47;;;28.40;;
36799;SDS011;22752;51.960;5.886;2023-03-03T00:48:48;52.10;;;27.17;;
36799;SDS011;22752;51.960;5.886;2023-03-03T00:51:25;48.17;;;26.43;;
36799;SDS011;22752;51.960;5.886;2023-03-03T00:53:55;51.27;;;26.80;;
36799;SDS011;22752;51.960;5.886;2023-03-03T00:56:22;47.03;;;26.73;;
36799;SDS011;22752;51.960;5.886;2023-03-03T00:58:48;52.97;;;27.73;;
36799;SDS011;22752;51.960;5.886;2023-03-03T01:01:14;52.83;;;28.40;;
36799;SDS011;22752;51.960;5.886;2023-03-03T01:03:41;53.63;;;29.37;;
36799;SDS011;22752;51.960;5.886;2023-03-03T01:06:07;56.40;;;28.83;;
36799;SDS011;22752;51.960;5.886;2023-03-03T01:08:33;53.83;;;27.83;;
36799;SDS011;22752;51.960;5.886;2023-03-03T01:10:59;47.83;;;26.60;;
36799;SDS011;22752;51.960;5.886;2023-03-03T01:13:31;52.95;;;28.35;;
36799;SDS011;22752;51.960;5.886;2023-03-03T01:15:59;49.43;;;27.17;;
36799;SDS011;22752;51.960;5.886;2023-03-03T01:18:26;48.53;;;26.57;;
36799;SDS011;22752;51.960;5.886;2023-03-03T01:20:52;49.97;;;27.23;;
36799;SDS011;22752;51.960;5.886;2023-03-03T01:23:18;46.60;;;26.27;;
36799;SDS011;22752;51.960;5.886;2023-03-03T01:25:44;53.33;;;28.03;;
36799;SDS011;22752;51.960;5.886;2023-03-03T01:28:09;53.47;;;28.03;;
36799;SDS011;22752;51.960;5.886;2023-03-03T01:30:35;50.83;;;27.43;;
36799;SDS011;22752;51.960;5.886;2023-03-03T01:33:01;49.73;;;27.53;;
36799;SDS011;22752;51.960;5.886;2023-03-03T01:35:27;48.27;;;26.70;;
36799;SDS011;22752;51.960;5.886;2023-03-03T01:37:54;53.67;;;27.93;;
36799;SDS011;22752;51.960;5.886;2023-03-03T01:40:21;48.10;;;27.00;;
36799;SDS011;22752;51.960;5.886;2023-03-03T01:42:48;49.97;;;26.70;;
36799;SDS011;22752;51.960;5.886;2023-03-03T01:50:51;48.30;;;26.87;;
36799;SDS011;22752;51.960;5.886;2023-03-03T01:53:29;48.27;;;26.10;;
36799;SDS011;22752;51.960;5.886;2023-03-03T01:56:03;47.70;;;25.83;;
36799;SDS011;22752;51.960;5.886;2023-03-03T01:58:35;45.70;;;25.53;;
36799;SDS011;22752;51.960;5.886;2023-03-03T02:01:06;50.20;;;26.93;;
36799;SDS011;22752;51.960;5.886;2023-03-03T02:03:35;47.30;;;25.77;;
36799;SDS011;22752;51.960;5.886;2023-03-03T02:06:23;49.33;;;27.20;;
36799;SDS011;22752;51.960;5.886;2023-03-03T02:08:59;43.17;;;24.40;;
36799;SDS011;22752;51.960;5.886;2023-03-03T02:11:26;46.23;;;25.10;;
36799;SDS011;22752;51.960;5.886;2023-03-03T02:13:55;47.73;;;26.33;;
36799;SDS011;22752;51.960;5.886;2023-03-03T02:16:21;45.07;;;26.20;;
36799;SDS011;22752;51.960;5.886;2023-03-03T02:18:47;46.60;;;27.40;;
36799;SDS011;22752;51.960;5.886;2023-03-03T02:21:17;46.70;;;26.60;;
36799;SDS011;22752;51.960;5.886;2023-03-03T02:23:49;43.92;;;25.00;;
36799;SDS011;22752;51.960;5.886;2023-03-03T02:26:28;50.07;;;26.57;;
36799;SDS011;22752;51.960;5.886;2023-03-03T02:28:55;45.53;;;25.93;;
36799;SDS011;22752;51.960;5.886;2023-03-03T02:31:22;46.97;;;26.73;;
36799;SDS011;22752;51.960;5.886;2023-03-03T02:33:51;48.83;;;26.07;;
36799;SDS011;22752;51.960;5.886;2023-03-03T02:41:35;51.77;;;28.13;;
36799;SDS011;22752;51.960;5.886;2023-03-03T02:44:11;54.37;;;28.63;;
36799;SDS011;22752;51.960;5.886;2023-03-03T02:46:39;49.73;;;27.77;;
36799;SDS011;22752;51.960;5.886;2023-03-03T02:49:07;56.40;;;30.20;;
36799;SDS011;22752;51.960;5.886;2023-03-03T02:51:34;53.80;;;28.97;;
36799;SDS011;22752;51.960;5.886;2023-03-03T02:54:00;54.40;;;29.03;;
36799;SDS011;22752;51.960;5.886;2023-03-03T02:56:26;53.13;;;29.07;;
36799;SDS011;22752;51.960;5.886;2023-03-03T02:58:52;48.03;;;27.80;;
36799;SDS011;22752;51.960;5.886;2023-03-03T03:01:18;50.37;;;27.13;;
36799;SDS011;22752;51.960;5.886;2023-03-03T03:03:44;49.50;;;25.20;;
36799;SDS011;22752;51.960;5.886;2023-03-03T03:06:10;51.50;;;26.70;;
36799;SDS011;22752;51.960;5.886;2023-03-03T03:08:35;45.57;;;24.93;;
36799;SDS011;22752;51.960;5.886;2023-03-03T03:11:01;46.93;;;24.53;;
36799;SDS011;22752;51.960;5.886;2023-03-03T03:13:29;49.67;;;25.13;;
36799;SDS011;22752;51.960;5.886;2023-03-03T03:15:55;44.67;;;24.57;;
36799;SDS011;22752;51.960;5.886;2023-03-03T03:18:22;51.33;;;24.93;;
36799;SDS011;22752;51.960;5.886;2023-03-03T03:20:48;49.33;;;25.53;;
36799;SDS011;22752;51.960;5.886;2023-03-03T03:23:14;42.00;;;23.00;;
36799;SDS011;22752;51.960;5.886;2023-03-03T03:25:40;43.33;;;23.57;;
36799;SDS011;22752;51.960;5.886;2023-03-03T03:28:15;45.88;;;23.95;;
36799;SDS011;22752;51.960;5.886;2023-03-03T03:30:42;44.57;;;24.00;;
36799;SDS011;22752;51.960;5.886;2023-03-03T03:33:09;43.67;;;23.07;;
36799;SDS011;22752;51.960;5.886;2023-03-03T03:35:35;45.43;;;23.20;;
36799;SDS011;22752;51.960;5.886;2023-03-03T03:38:02;44.67;;;23.93;;
36799;SDS011;22752;51.960;5.886;2023-03-03T03:40:27;44.80;;;24.27;;
36799;SDS011;22752;51.960;5.886;2023-03-03T03:42:53;48.43;;;24.47;;
36799;SDS011;22752;51.960;5.886;2023-03-03T03:45:19;48.97;;;26.67;;
36799;SDS011;22752;51.960;5.886;2023-03-03T03:47:46;46.60;;;24.60;;
36799;SDS011;22752;51.960;5.886;2023-03-03T03:50:12;46.70;;;25.07;;
36799;SDS011;22752;51.960;5.886;2023-03-03T03:52:38;49.20;;;25.13;;
36799;SDS011;22752;51.960;5.886;2023-03-03T03:55:04;50.53;;;26.37;;
36799;SDS011;22752;51.960;5.886;2023-03-03T03:57:30;51.53;;;25.33;;
36799;SDS011;22752;51.960;5.886;2023-03-03T03:59:56;53.23;;;26.47;;
36799;SDS011;22752;51.960;5.886;2023-03-03T04:02:21;50.20;;;25.57;;
36799;SDS011;22752;51.960;5.886;2023-03-03T04:04:47;53.10;;;26.80;;
36799;SDS011;22752;51.960;5.886;2023-03-03T04:07:13;53.97;;;25.70;;
36799;SDS011;22752;51.960;5.886;2023-03-03T04:09:38;52.70;;;26.53;;
36799;SDS011;22752;51.960;5.886;2023-03-03T04:12:04;53.17;;;26.47;;
36799;SDS011;22752;51.960;5.886;2023-03-03T04:14:30;51.80;;;26.10;;
36799;SDS011;22752;51.960;5.886;2023-03-03T04:16:55;54.53;;;26.57;;
36799;SDS011;22752;51.960;5.886;2023-03-03T04:19:21;50.07;;;25.23;;
36799;SDS011;22752;51.960;5.886;2023-03-03T04:21:47;53.57;;;26.47;;
36799;SDS011;22752;51.960;5.886;2023-03-03T04:24:13;52.43;;;26.70;;
36799;SDS011;22752;51.960;5.886;2023-03-03T04:26:38;54.87;;;26.27;;
36799;SDS011;22752;51.960;5.886;2023-03-03T04:29:04;55.03;;;26.20;;
36799;SDS011;22752;51.960;5.886;2023-03-03T04:31:30;57.17;;;26.40;;
36799;SDS011;22752;51.960;5.886;2023-03-03T04:33:56;54.10;;;26.07;;
36799;SDS011;22752;51.960;5.886;2023-03-03T04:36:22;53.37;;;26.30;;
36799;SDS011;22752;51.960;5.886;2023-03-03T04:38:48;55.37;;;27.03;;
36799;SDS011;22752;51.960;5.886;2023-03-03T04:41:14;56.53;;;27.43;;
36799;SDS011;22752;51.960;5.886;2023-03-03T04:43:40;59.53;;;28.13;;
36799;SDS011;22752;51.960;5.886;2023-03-03T04:46:05;55.83;;;28.13;;
36799;SDS011;22752;51.960;5.886;2023-03-03T04:48:31;63.80;;;31.30;;
36799;SDS011;22752;51.960;5.886;2023-03-03T04:50:57;57.03;;;27.57;;
36799;SDS011;22752;51.960;5.886;2023-03-03T04:53:22;56.73;;;28.47;;
36799;SDS011;22752;51.960;5.886;2023-03-03T04:55:52;53.83;;;28.10;;
36799;SDS011;22752;51.960;5.886;2023-03-03T04:58:18;57.73;;;27.87;;
36799;SDS011;22752;51.960;5.886;2023-03-03T05:00:54;53.80;;;26.57;;
36799;SDS011;22752;51.960;5.886;2023-03-03T05:03:21;53.00;;;27.87;;
36799;SDS011;22752;51.960;5.886;2023-03-03T05:05:47;50.43;;;26.20;;
36799;SDS011;22752;51.960;5.886;2023-03-03T05:08:13;49.30;;;26.27;;
36799;SDS011;22752;51.960;5.886;2023-03-03T05:10:38;51.73;;;26.90;;
36799;SDS011;22752;51.960;5.886;2023-03-03T05:13:05;59.67;;;28.20;;
36799;SDS011;22752;51.960;5.886;2023-03-03T05:15:31;52.37;;;26.67;;
36799;SDS011;22752;51.960;5.886;2023-03-03T05:17:57;58.27;;;27.40;;
36799;SDS011;22752;51.960;5.886;2023-03-03T05:20:23;63.40;;;30.73;;
36799;SDS011;22752;51.960;5.886;2023-03-03T05:22:49;60.77;;;28.43;;
36799;SDS011;22752;51.960;5.886;2023-03-03T05:25:15;51.10;;;27.07;;
36799;SDS011;22752;51.960;5.886;2023-03-03T05:27:41;62.03;;;29.87;;
36799;SDS011;22752;51.960;5.886;2023-03-03T05:30:07;64.33;;;29.20;;
36799;SDS011;22752;51.960;5.886;2023-03-03T05:32:34;60.67;;;29.27;;
36799;SDS011;22752;51.960;5.886;2023-03-03T05:35:00;61.53;;;29.93;;
36799;SDS011;22752;51.960;5.886;2023-03-03T05:37:26;55.77;;;28.63;;
36799;SDS011;22752;51.960;5.886;2023-03-03T05:39:52;59.17;;;28.30;;
36799;SDS011;22752;51.960;5.886;2023-03-03T05:42:18;58.70;;;28.23;;
36799;SDS011;22752;51.960;5.886;2023-03-03T05:44:43;58.57;;;28.83;;
36799;SDS011;22752;51.960;5.886;2023-03-03T05:47:09;53.93;;;26.37;;
36799;SDS011;22752;51.960;5.886;2023-03-03T05:49:35;49.67;;;24.83;;
36799;SDS011;22752;51.960;5.886;2023-03-03T05:52:01;45.10;;;23.03;;
36799;SDS011;22752;51.960;5.886;2023-03-03T05:54:26;45.30;;;24.23;;
36799;SDS011;22752;51.960;5.886;2023-03-03T05:56:52;48.80;;;24.40;;
36799;SDS011;22752;51.960;5.886;2023-03-03T05:59:18;45.80;;;23.53;;
36799;SDS011;22752;51.960;5.886;2023-03-03T06:01:43;44.97;;;23.23;;
36799;SDS011;22752;51.960;5.886;2023-03-03T06:04:09;41.87;;;21.47;;
36799;SDS011;22752;51.960;5.886;2023-03-03T06:06:35;44.30;;;22.73;;
36799;SDS011;22752;51.960;5.886;2023-03-03T06:09:00;44.37;;;22.30;;
36799;SDS011;22752;51.960;5.886;2023-03-03T06:11:26;45.67;;;21.83;;
36799;SDS011;22752;51.960;5.886;2023-03-03T06:13:52;38.93;;;19.77;;
36799;SDS011;22752;51.960;5.886;2023-03-03T06:16:18;41.10;;;20.30;;
36799;SDS011;22752;51.960;5.886;2023-03-03T06:18:44;40.80;;;19.80;;
36799;SDS011;22752;51.960;5.886;2023-03-03T06:21:10;43.67;;;20.67;;
36799;SDS011;22752;51.960;5.886;2023-03-03T06:23:35;38.20;;;20.13;;
36799;SDS011;22752;51.960;5.886;2023-03-03T06:26:01;42.67;;;21.07;;
36799;SDS011;22752;51.960;5.886;2023-03-03T06:28:27;40.10;;;20.23;;
36799;SDS011;22752;51.960;5.886;2023-03-03T06:30:53;40.77;;;19.10;;
36799;SDS011;22752;51.960;5.886;2023-03-03T06:33:19;44.23;;;22.33;;
36799;SDS011;22752;51.960;5.886;2023-03-03T06:35:48;45.03;;;21.50;;
36799;SDS011;22752;51.960;5.886;2023-03-03T06:38:18;43.75;;;20.52;;
36799;SDS011;22752;51.960;5.886;2023-03-03T06:40:44;42.70;;;21.60;;
36799;SDS011;22752;51.960;5.886;2023-03-03T06:43:10;41.80;;;21.43;;
36799;SDS011;22752;51.960;5.886;2023-03-03T06:45:36;37.93;;;20.37;;
36799;SDS011;22752;51.960;5.886;2023-03-03T06:48:02;41.27;;;21.23;;
36799;SDS011;22752;51.960;5.886;2023-03-03T06:50:28;42.90;;;21.43;;
36799;SDS011;22752;51.960;5.886;2023-03-03T06:55:35;40.67;;;20.73;;
36799;SDS011;22752;51.960;5.886;2023-03-03T06:58:06;40.50;;;20.60;;
36799;SDS011;22752;51.960;5.886;2023-03-03T07:00:34;38.77;;;19.37;;
36799;SDS011;22752;51.960;5.886;2023-03-03T07:03:01;41.20;;;19.77;;
36799;SDS011;22752;51.960;5.886;2023-03-03T07:05:35;43.23;;;20.97;;
36799;SDS011;22752;51.960;5.886;2023-03-03T07:08:01;40.00;;;18.60;;
36799;SDS011;22752;51.960;5.886;2023-03-03T07:10:30;39.77;;;18.90;;
36799;SDS011;22752;51.960;5.886;2023-03-03T07:12:57;37.40;;;17.47;;
36799;SDS011;22752;51.960;5.886;2023-03-03T07:15:59;34.80;;;16.47;;
36799;SDS011;22752;51.960;5.886;2023-03-03T07:18:34;30.07;;;14.57;;
36799;SDS011;22752;51.960;5.886;2023-03-03T07:21:21;32.10;;;14.33;;
36799;SDS011;22752;51.960;5.886;2023-03-03T07:23:53;25.87;;;12.90;;
36799;SDS011;22752;51.960;5.886;2023-03-03T07:26:20;25.00;;;12.90;;
36799;SDS011;22752;51.960;5.886;2023-03-03T07:28:54;24.60;;;12.37;;
36799;SDS011;22752;51.960;5.886;2023-03-03T07:33:59;21.33;;;10.60;;
36799;SDS011;22752;51.960;5.886;2023-03-03T07:36:26;19.63;;;10.83;;
36799;SDS011;22752;51.960;5.886;2023-03-03T07:38:54;21.40;;;10.53;;
36799;SDS011;22752;51.960;5.886;2023-03-03T07:41:23;20.13;;;9.97;;
36799;SDS011;22752;51.960;5.886;2023-03-03T07:43:50;17.70;;;9.47;;
36799;SDS011;22752;51.960;5.886;2023-03-03T07:46:30;21.03;;;10.07;;
36799;SDS011;22752;51.960;5.886;2023-03-03T07:51:51;16.00;;;9.00;;
36799;SDS011;22752;51.960;5.886;2023-03-03T07:54:34;19.73;;;10.57;;
36799;SDS011;22752;51.960;5.886;2023-03-03T07:59:46;21.88;;;11.85;;
36799;SDS011;22752;51.960;5.886;2023-03-03T08:04:56;21.47;;;9.97;;
36799;SDS011;22752;51.960;5.886;2023-03-03T08:07:22;23.13;;;11.50;;
36799;SDS011;22752;51.960;5.886;2023-03-03T08:09:55;21.63;;;10.50;;
36799;SDS011;22752;51.960;5.886;2023-03-03T08:12:30;20.63;;;10.13;;
36799;SDS011;22752;51.960;5.886;2023-03-03T08:15:19;23.33;;;10.90;;
36799;SDS011;22752;51.960;5.886;2023-03-03T08:17:47;27.43;;;12.40;;
36799;SDS011;22752;51.960;5.886;2023-03-03T08:23:07;25.43;;;12.03;;
36799;SDS011;22752;51.960;5.886;2023-03-03T08:25:33;21.30;;;10.87;;
36799;SDS011;22752;51.960;5.886;2023-03-03T08:27:58;21.53;;;11.07;;
36799;SDS011;22752;51.960;5.886;2023-03-03T08:30:24;20.43;;;10.03;;
36799;SDS011;22752;51.960;5.886;2023-03-03T08:32:50;20.93;;;10.80;;
36799;SDS011;22752;51.960;5.886;2023-03-03T08:35:15;20.60;;;10.80;;
36799;SDS011;22752;51.960;5.886;2023-03-03T08:37:41;18.93;;;9.87;;
36799;SDS011;22752;51.960;5.886;2023-03-03T08:40:07;21.07;;;10.40;;
36799;SDS011;22752;51.960;5.886;2023-03-03T08:42:33;22.07;;;10.47;;
36799;SDS011;22752;51.960;5.886;2023-03-03T08:44:59;24.13;;;11.27;;
36799;SDS011;22752;51.960;5.886;2023-03-03T08:47:24;22.13;;;11.13;;
36799;SDS011;22752;51.960;5.886;2023-03-03T08:49:50;18.77;;;10.03;;
36799;SDS011;22752;51.960;5.886;2023-03-03T08:52:15;19.83;;;9.67;;
36799;SDS011;22752;51.960;5.886;2023-03-03T08:54:41;18.90;;;9.57;;
36799;SDS011;22752;51.960;5.886;2023-03-03T08:57:08;15.73;;;9.07;;
36799;SDS011;22752;51.960;5.886;2023-03-03T08:59:33;16.70;;;9.37;;
36799;SDS011;22752;51.960;5.886;2023-03-03T09:02:03;21.03;;;9.93;;
36799;SDS011;22752;51.960;5.886;2023-03-03T09:04:30;19.20;;;9.37;;
36799;SDS011;22752;51.960;5.886;2023-03-03T09:06:56;17.63;;;9.87;;
36799;SDS011;22752;51.960;5.886;2023-03-03T09:09:21;17.83;;;9.80;;
36799;SDS011;22752;51.960;5.886;2023-03-03T09:11:47;18.13;;;9.37;;
36799;SDS011;22752;51.960;5.886;2023-03-03T09:14:14;16.13;;;9.20;;
36799;SDS011;22752;51.960;5.886;2023-03-03T09:16:51;20.23;;;9.63;;
36799;SDS011;22752;51.960;5.886;2023-03-03T09:19:20;13.33;;;8.30;;
36799;SDS011;22752;51.960;5.886;2023-03-03T09:24:41;14.33;;;8.03;;
36799;SDS011;22752;51.960;5.886;2023-03-03T09:27:11;15.30;;;7.73;;
36799;SDS011;22752;51.960;5.886;2023-03-03T09:29:56;12.23;;;6.93;;
36799;SDS011;22752;51.960;5.886;2023-03-03T09:32:30;12.87;;;7.60;;
36799;SDS011;22752;51.960;5.886;2023-03-03T09:35:24;13.77;;;7.07;;
36799;SDS011;22752;51.960;5.886;2023-03-03T09:37:59;15.33;;;8.00;;
36799;SDS011;22752;51.960;5.886;2023-03-03T09:46:03;14.90;;;6.90;;
36799;SDS011;22752;51.960;5.886;2023-03-03T09:48:54;11.23;;;7.13;;
36799;SDS011;22752;51.960;5.886;2023-03-03T09:57:16;13.00;;;7.63;;
36799;SDS011;22752;51.960;5.886;2023-03-03T10:13:05;10.63;;;6.50;;
36799;SDS011;22752;51.960;5.886;2023-03-03T10:16:10;9.37;;;6.00;;
36799;SDS011;22752;51.960;5.886;2023-03-03T10:24:44;10.27;;;5.40;;
36799;SDS011;22752;51.960;5.886;2023-03-03T10:30:06;8.35;;;5.47;;
36799;SDS011;22752;51.960;5.886;2023-03-03T10:40:18;8.57;;;5.10;;
36799;SDS011;22752;51.960;5.886;2023-03-03T10:45:30;12.30;;;6.00;;
36799;SDS011;22752;51.960;5.886;2023-03-03T10:53:31;8.20;;;4.70;;
36799;SDS011;22752;51.960;5.886;2023-03-03T10:58:51;9.37;;;5.37;;
36799;SDS011;22752;51.960;5.886;2023-03-03T11:01:20;10.80;;;5.70;;
36799;SDS011;22752;51.960;5.886;2023-03-03T11:20:07;8.83;;;4.67;;
36799;SDS011;22752;51.960;5.886;2023-03-03T11:23:02;9.27;;;4.63;;
36799;SDS011;22752;51.960;5.886;2023-03-03T11:25:59;7.33;;;4.90;;
36799;SDS011;22752;51.960;5.886;2023-03-03T11:28:39;9.13;;;4.80;;
36799;SDS011;22752;51.960;5.886;2023-03-03T11:36:51;6.10;;;4.40;;
36799;SDS011;22752;51.960;5.886;2023-03-03T11:39:32;8.50;;;4.63;;
36799;SDS011;22752;51.960;5.886;2023-03-03T11:44:58;10.40;;;4.50;;
36799;SDS011;22752;51.960;5.886;2023-03-03T11:47:57;9.03;;;4.80;;
36799;SDS011;22752;51.960;5.886;2023-03-03T11:50:54;6.33;;;4.20;;
36799;SDS011;22752;51.960;5.886;2023-03-03T11:56:13;5.13;;;3.47;;
36799;SDS011;22752;51.960;5.886;2023-03-03T11:58:50;5.35;;;3.78;;
36799;SDS011;22752;51.960;5.886;2023-03-03T12:01:41;8.33;;;3.90;;
36799;SDS011;22752;51.960;5.886;2023-03-03T12:04:14;10.90;;;3.70;;
36799;SDS011;22752;51.960;5.886;2023-03-03T12:25:39;4.40;;;3.23;;
36799;SDS011;22752;51.960;5.886;2023-03-03T12:28:10;8.07;;;3.10;;
36799;SDS011;22752;51.960;5.886;2023-03-03T12:41:56;4.63;;;2.63;;
36799;SDS011;22752;51.960;5.886;2023-03-03T12:49:41;5.43;;;3.13;;
36799;SDS011;22752;51.960;5.886;2023-03-03T13:07:00;4.40;;;2.37;;
36799;SDS011;22752;51.960;5.886;2023-03-03T13:15:15;2.87;;;1.87;;
36799;SDS011;22752;51.960;5.886;2023-03-03T13:23:19;4.97;;;2.20;;
36799;SDS011;22752;51.960;5.886;2023-03-03T13:31:32;3.40;;;2.03;;
36799;SDS011;22752;51.960;5.886;2023-03-03T13:34:36;3.57;;;1.87;;
36799;SDS011;22752;51.960;5.886;2023-03-03T13:40:00;4.17;;;2.10;;
36799;SDS011;22752;51.960;5.886;2023-03-03T13:42:39;3.85;;;2.67;;
36799;SDS011;22752;51.960;5.886;2023-03-03T13:50:57;4.70;;;2.73;;
36799;SDS011;22752;51.960;5.886;2023-03-03T14:01:57;4.57;;;2.50;;
36799;SDS011;22752;51.960;5.886;2023-03-03T14:04:52;5.43;;;2.37;;
36799;SDS011;22752;51.960;5.886;2023-03-03T14:13:04;5.53;;;3.10;;
36799;SDS011;22752;51.960;5.886;2023-03-03T14:15:54;8.40;;;3.57;;
36799;SDS011;22752;51.960;5.886;2023-03-03T14:18:35;6.67;;;3.23;;
36799;SDS011;22752;51.960;5.886;2023-03-03T14:21:15;8.03;;;3.53;;
36799;SDS011;22752;51.960;5.886;2023-03-03T14:23:52;6.50;;;3.03;;
36799;SDS011;22752;51.960;5.886;2023-03-03T14:26:23;4.97;;;2.90;;
36799;SDS011;22752;51.960;5.886;2023-03-03T14:28:49;5.67;;;3.60;;
36799;SDS011;22752;51.960;5.886;2023-03-03T14:34:13;5.00;;;2.90;;
36799;SDS011;22752;51.960;5.886;2023-03-03T14:37:41;6.57;;;2.33;;
36799;SDS011;22752;51.960;5.886;2023-03-03T14:40:20;5.53;;;2.57;;
36799;SDS011;22752;51.960;5.886;2023-03-03T14:42:53;5.73;;;2.70;;
36799;SDS011;22752;51.960;5.886;2023-03-03T14:48:15;5.63;;;2.63;;
36799;SDS011;22752;51.960;5.886;2023-03-03T14:55:44;6.50;;;2.30;;
36799;SDS011;22752;51.960;5.886;2023-03-03T15:06:40;10.33;;;4.97;;
36799;SDS011;22752;51.960;5.886;2023-03-03T15:12:22;11.63;;;7.28;;
36799;SDS011;22752;51.960;5.886;2023-03-03T15:14:49;10.33;;;7.17;;
36799;SDS011;22752;51.960;5.886;2023-03-03T15:33:32;5.03;;;1.80;;
36799;SDS011;22752;51.960;5.886;2023-03-03T15:43:51;6.37;;;1.77;;
36799;SDS011;22752;51.960;5.886;2023-03-03T15:46:26;1.90;;;1.33;;
36799;SDS011;22752;51.960;5.886;2023-03-03T15:54:37;6.03;;;2.40;;
36799;SDS011;22752;51.960;5.886;2023-03-03T15:57:18;4.13;;;2.53;;
36799;SDS011;22752;51.960;5.886;2023-03-03T16:00:12;5.17;;;2.47;;
36799;SDS011;22752;51.960;5.886;2023-03-03T16:02:57;3.97;;;1.67;;
36799;SDS011;22752;51.960;5.886;2023-03-03T16:05:33;4.30;;;1.90;;
36799;SDS011;22752;51.960;5.886;2023-03-03T16:08:16;4.10;;;1.80;;
36799;SDS011;22752;51.960;5.886;2023-03-03T16:18:40;4.80;;;2.63;;
36799;SDS011;22752;51.960;5.886;2023-03-03T16:24:32;5.43;;;1.90;;
36799;SDS011;22752;51.960;5.886;2023-03-03T16:27:20;5.45;;;1.95;;
36799;SDS011;22752;51.960;5.886;2023-03-03T16:38:59;5.03;;;2.10;;
36799;SDS011;22752;51.960;5.886;2023-03-03T16:44:27;4.87;;;2.20;;
36799;SDS011;22752;51.960;5.886;2023-03-03T16:47:18;5.37;;;2.50;;
36799;SDS011;22752;51.960;5.886;2023-03-03T16:52:42;5.47;;;1.90;;
36799;SDS011;22752;51.960;5.886;2023-03-03T16:55:17;7.00;;;2.42;;
36799;SDS011;22752;51.960;5.886;2023-03-03T16:58:01;4.90;;;1.70;;
36799;SDS011;22752;51.960;5.886;2023-03-03T17:11:30;1.73;;;1.10;;
36799;SDS011;22752;51.960;5.886;2023-03-03T17:14:22;4.33;;;1.40;;
36799;SDS011;22752;51.960;5.886;2023-03-03T17:22:11;4.53;;;1.57;;
36799;SDS011;22752;51.960;5.886;2023-03-03T17:25:01;4.60;;;1.43;;
36799;SDS011;22752;51.960;5.886;2023-03-03T17:30:44;3.60;;;1.50;;
36799;SDS011;22752;51.960;5.886;2023-03-03T17:35:58;5.37;;;1.73;;
36799;SDS011;22752;51.960;5.886;2023-03-03T17:41:10;6.93;;;1.30;;
36799;SDS011;22752;51.960;5.886;2023-03-03T17:44:06;4.43;;;1.40;;
36799;SDS011;22752;51.960;5.886;2023-03-03T17:46:53;6.60;;;1.70;;
36799;SDS011;22752;51.960;5.886;2023-03-03T17:55:18;6.17;;;1.80;;
36799;SDS011;22752;51.960;5.886;2023-03-03T18:06:34;3.57;;;1.80;;
36799;SDS011;22752;51.960;5.886;2023-03-03T18:09:20;4.33;;;1.50;;
36799;SDS011;22752;51.960;5.886;2023-03-03T18:15:19;6.65;;;1.52;;
36799;SDS011;22752;51.960;5.886;2023-03-03T18:20:45;3.33;;;1.33;;
36799;SDS011;22752;51.960;5.886;2023-03-03T18:25:51;5.97;;;1.33;;
36799;SDS011;22752;51.960;5.886;2023-03-03T18:28:35;3.77;;;1.23;;
36799;SDS011;22752;51.960;5.886;2023-03-03T18:31:01;8.17;;;2.00;;
36799;SDS011;22752;51.960;5.886;2023-03-03T18:34:02;10.80;;;1.67;;
36799;SDS011;22752;51.960;5.886;2023-03-03T18:38:57;7.30;;;1.33;;
36799;SDS011;22752;51.960;5.886;2023-03-03T18:41:26;5.73;;;1.57;;
36799;SDS011;22752;51.960;5.886;2023-03-03T18:48:56;7.13;;;1.90;;
36799;SDS011;22752;51.960;5.886;2023-03-03T18:59:09;14.60;;;2.43;;
36799;SDS011;22752;51.960;5.886;2023-03-03T19:07:25;10.80;;;1.87;;
36799;SDS011;22752;51.960;5.886;2023-03-03T19:09:55;11.50;;;2.33;;
36799;SDS011;22752;51.960;5.886;2023-03-03T19:17:57;14.83;;;2.30;;
36799;SDS011;22752;51.960;5.886;2023-03-03T19:20:23;16.33;;;2.57;;
36799;SDS011;22752;51.960;5.886;2023-03-03T19:22:51;13.00;;;2.40;;
36799;SDS011;22752;51.960;5.886;2023-03-03T19:25:27;17.53;;;2.23;;
36799;SDS011;22752;51.960;5.886;2023-03-03T19:33:32;20.73;;;2.53;;
36799;SDS011;22752;51.960;5.886;2023-03-03T19:36:12;17.10;;;2.33;;
36799;SDS011;22752;51.960;5.886;2023-03-03T19:38:43;21.83;;;3.37;;
36799;SDS011;22752;51.960;5.886;2023-03-03T19:41:34;16.50;;;2.57;;
36799;SDS011;22752;51.960;5.886;2023-03-03T19:47:13;14.73;;;2.83;;
36799;SDS011;22752;51.960;5.886;2023-03-03T19:53:04;14.97;;;2.10;;
36799;SDS011;22752;51.960;5.886;2023-03-03T20:07:01;14.80;;;2.63;;
36799;SDS011;22752;51.960;5.886;2023-03-03T20:09:44;12.00;;;2.03;;
36799;SDS011;22752;51.960;5.886;2023-03-03T20:15:19;17.13;;;2.63;;
36799;SDS011;22752;51.960;5.886;2023-03-03T20:23:30;16.73;;;2.87;;
36799;SDS011;22752;51.960;5.886;2023-03-03T20:26:21;11.97;;;2.63;;
36799;SDS011;22752;51.960;5.886;2023-03-03T20:34:28;21.30;;;3.20;;
36799;SDS011;22752;51.960;5.886;2023-03-03T20:37:04;15.37;;;2.87;;
36799;SDS011;22752;51.960;5.886;2023-03-03T20:39:48;10.47;;;2.00;;
36799;SDS011;22752;51.960;5.886;2023-03-03T20:53:24;16.53;;;2.53;;
36799;SDS011;22752;51.960;5.886;2023-03-03T21:02:01;15.23;;;2.97;;
36799;SDS011;22752;51.960;5.886;2023-03-03T21:07:37;19.03;;;3.37;;
36799;SDS011;22752;51.960;5.886;2023-03-03T21:10:18;15.93;;;2.90;;
36799;SDS011;22752;51.960;5.886;2023-03-03T21:12:53;17.45;;;3.40;;
36799;SDS011;22752;51.960;5.886;2023-03-03T21:15:30;15.27;;;2.67;;
36799;SDS011;22752;51.960;5.886;2023-03-03T21:18:01;19.83;;;2.60;;
36799;SDS011;22752;51.960;5.886;2023-03-03T21:20:48;17.37;;;2.77;;
36799;SDS011;22752;51.960;5.886;2023-03-03T21:23:15;17.23;;;2.67;;
36799;SDS011;22752;51.960;5.886;2023-03-03T21:25:48;19.17;;;2.63;;
36799;SDS011;22752;51.960;5.886;2023-03-03T21:28:19;14.23;;;2.30;;
36799;SDS011;22752;51.960;5.886;2023-03-03T21:36:16;21.97;;;3.23;;
36799;SDS011;22752;51.960;5.886;2023-03-03T21:39:04;15.80;;;2.80;;
36799;SDS011;22752;51.960;5.886;2023-03-03T21:41:52;16.17;;;2.93;;
36799;SDS011;22752;51.960;5.886;2023-03-03T21:47:12;26.57;;;3.13;;
36799;SDS011;22752;51.960;5.886;2023-03-03T21:49:45;22.13;;;3.10;;
36799;SDS011;22752;51.960;5.886;2023-03-03T21:52:13;17.80;;;3.47;;
36799;SDS011;22752;51.960;5.886;2023-03-03T21:54:40;15.77;;;3.20;;
36799;SDS011;22752;51.960;5.886;2023-03-03T21:57:06;16.00;;;2.60;;
36799;SDS011;22752;51.960;5.886;2023-03-03T21:59:32;15.17;;;2.60;;